createdAt,value
2018-05-29T00:01:02.898Z,22.20
2018-05-29T00:03:31.053Z,22.20
2018-05-29T00:05:58.829Z,22.10
2018-05-29T00:08:29.848Z,22.10
2018-05-29T00:10:58.692Z,22.10
2018-05-29T00:13:27.776Z,22.00
2018-05-29T00:15:57.877Z,22.00
2018-05-29T00:18:27.951Z,22.00
2018-05-29T00:20:57.021Z,22.00
2018-05-29T00:23:25.661Z,22.10
2018-05-29T00:25:55.762Z,22.00
2018-05-29T00:28:26.029Z,21.90
2018-05-29T00:30:57.436Z,21.90
2018-05-29T00:33:35.119Z,21.80
2018-05-29T00:36:03.663Z,21.80
2018-05-29T00:38:32.029Z,21.70
2018-05-29T00:40:59.773Z,21.70
2018-05-29T00:43:27.395Z,21.60
2018-05-29T00:45:58.122Z,21.60
2018-05-29T00:48:37.535Z,21.50
2018-05-29T00:51:06.582Z,21.40
2018-05-29T00:53:34.252Z,21.30
2018-05-29T00:56:01.845Z,21.30
2018-05-29T00:58:36.275Z,21.30
2018-05-29T01:01:04.713Z,21.20
2018-05-29T01:03:33.508Z,21.20
2018-05-29T01:06:03.968Z,21.10
2018-05-29T01:08:32.587Z,21.00
2018-05-29T01:11:00.348Z,21.00
2018-05-29T01:13:29.865Z,21.00
2018-05-29T01:16:00.122Z,21.00
2018-05-29T01:18:31.142Z,20.90
2018-05-29T01:20:58.877Z,20.90
2018-05-29T01:23:27.509Z,20.90
2018-05-29T01:25:55.191Z,20.90
2018-05-29T01:28:27.297Z,20.80
2018-05-29T01:30:59.570Z,20.80
2018-05-29T01:33:29.392Z,20.70
2018-05-29T01:35:59.708Z,20.60
2018-05-29T01:38:34.347Z,20.60
2018-05-29T01:41:02.873Z,20.50
2018-05-29T01:43:31.219Z,20.40
2018-05-29T01:46:04.899Z,20.40
2018-05-29T01:48:32.568Z,20.40
2018-05-29T01:51:02.055Z,20.30
2018-05-29T01:53:32.138Z,20.20
2018-05-29T01:56:02.369Z,20.20
2018-05-29T01:58:32.895Z,20.20
2018-05-29T02:01:04.072Z,20.20
2018-05-29T02:03:33.661Z,20.20
2018-05-29T02:06:02.299Z,20.20
2018-05-29T02:08:41.411Z,20.20
2018-05-29T02:11:13.177Z,20.00
2018-05-29T02:13:42.566Z,20.00
2018-05-29T02:16:10.208Z,19.90
2018-05-29T02:18:38.034Z,19.90
2018-05-29T02:21:05.640Z,19.90
2018-05-29T02:23:33.266Z,19.90
2018-05-29T02:26:03.188Z,19.80
2018-05-29T02:28:31.685Z,19.80
2018-05-29T02:31:03.006Z,19.80
2018-05-29T02:33:31.420Z,19.80
2018-05-29T02:36:00.493Z,19.80
2018-05-29T02:38:31.143Z,19.80
2018-05-29T02:41:02.560Z,19.80
2018-05-29T02:43:31.496Z,19.80
2018-05-29T02:46:00.896Z,19.80
2018-05-29T02:48:29.521Z,19.90
2018-05-29T02:51:01.774Z,19.90
2018-05-29T02:53:29.450Z,19.80
2018-05-29T02:55:57.909Z,19.90
2018-05-29T02:58:25.575Z,19.80
2018-05-29T03:00:56.813Z,19.80
2018-05-29T03:03:30.561Z,19.80
2018-05-29T03:06:07.152Z,19.80
2018-05-29T03:08:35.617Z,19.90
2018-05-29T03:11:03.961Z,19.80
2018-05-29T03:13:34.159Z,19.70
2018-05-29T03:16:04.450Z,19.80
2018-05-29T03:18:32.077Z,19.80
2018-05-29T03:21:01.716Z,19.60
2018-05-29T03:23:32.002Z,19.60
2018-05-29T03:26:01.182Z,19.40
2018-05-29T03:28:33.229Z,19.40
2018-05-29T03:31:15.456Z,19.40
2018-05-29T03:33:43.854Z,19.40
2018-05-29T03:36:12.224Z,19.40
2018-05-29T03:38:39.870Z,19.30
2018-05-29T03:41:08.353Z,19.40
2018-05-29T03:43:36.701Z,19.40
2018-05-29T03:46:04.328Z,19.30
2018-05-29T03:54:51.571Z,19.20
2018-05-29T04:00:19.062Z,19.20
2018-05-29T04:03:04.669Z,19.20
2018-05-29T04:08:29.791Z,19.20
2018-05-29T04:10:57.355Z,19.20
2018-05-29T04:13:28.343Z,19.20
2018-05-29T04:15:58.857Z,19.20
2018-05-29T04:18:29.781Z,19.20
2018-05-29T04:21:03.347Z,19.20
2018-05-29T04:23:30.948Z,19.20
2018-05-29T04:25:59.577Z,19.20
2018-05-29T04:28:28.838Z,19.30
2018-05-29T04:31:01.043Z,19.30
2018-05-29T04:33:30.383Z,19.20
2018-05-29T04:35:57.971Z,19.30
2018-05-29T04:38:26.859Z,19.30
2018-05-29T04:44:20.240Z,19.30
2018-05-29T04:46:49.105Z,19.40
2018-05-29T04:49:18.037Z,19.40
2018-05-29T04:51:56.458Z,19.40
2018-05-29T04:54:27.225Z,19.50
2018-05-29T04:56:57.913Z,19.50
2018-05-29T04:59:31.986Z,19.50
2018-05-29T05:02:03.847Z,19.50
2018-05-29T05:04:37.915Z,19.60
2018-05-29T05:07:17.089Z,19.60
2018-05-29T05:09:45.624Z,19.60
2018-05-29T05:12:13.310Z,19.60
2018-05-29T05:14:40.929Z,19.70
2018-05-29T05:17:08.670Z,19.70
2018-05-29T05:19:36.292Z,19.80
2018-05-29T05:22:03.860Z,19.80
2018-05-29T05:24:31.440Z,19.80
2018-05-29T05:27:00.122Z,19.80
2018-05-29T05:29:31.203Z,19.80
2018-05-29T05:32:04.154Z,19.80
2018-05-29T05:34:31.878Z,19.80
2018-05-29T05:37:00.960Z,19.90
2018-05-29T05:39:32.700Z,19.90
2018-05-29T05:42:03.796Z,19.90
2018-05-29T05:44:32.660Z,19.90
2018-05-29T05:47:00.968Z,20.00
2018-05-29T05:49:30.662Z,20.10
2018-05-29T05:52:00.120Z,20.10
2018-05-29T05:54:29.528Z,20.20
2018-05-29T05:57:14.226Z,20.30
2018-05-29T05:59:43.531Z,20.40
2018-05-29T06:02:13.094Z,20.50
2018-05-29T06:04:41.478Z,20.40
2018-05-29T06:07:09.858Z,20.60
2018-05-29T06:12:33.714Z,20.70
2018-05-29T06:15:02.098Z,20.80
2018-05-29T06:17:29.728Z,20.80
2018-05-29T06:19:58.110Z,20.90
2018-05-29T06:22:25.749Z,20.80
2018-05-29T06:24:53.432Z,20.90
2018-05-29T06:27:21.795Z,21.10
2018-05-29T06:29:49.400Z,21.10
2018-05-29T06:32:17.029Z,21.20
2018-05-29T06:34:44.654Z,21.30
2018-05-29T06:37:12.635Z,21.40
2018-05-29T06:39:40.260Z,21.50
2018-05-29T06:42:08.631Z,21.60
2018-05-29T06:44:36.230Z,21.50
2018-05-29T06:47:03.873Z,21.70
2018-05-29T06:49:31.491Z,21.80
2018-05-29T06:51:59.079Z,21.90
2018-05-29T06:54:26.734Z,22.00
2018-05-29T06:56:55.104Z,22.00
2018-05-29T06:59:22.755Z,22.00
2018-05-29T07:01:50.385Z,22.10
2018-05-29T07:04:21.212Z,22.20
2018-05-29T07:06:48.857Z,22.20
2018-05-29T07:09:28.377Z,22.30
2018-05-29T07:11:55.987Z,22.40
2018-05-29T07:14:28.375Z,22.50
2018-05-29T07:17:05.144Z,22.60
2018-05-29T07:19:32.868Z,22.60
2018-05-29T07:22:02.132Z,22.70
2018-05-29T07:24:32.083Z,22.80
2018-05-29T07:27:03.221Z,22.90
2018-05-29T07:29:32.606Z,23.00
2018-05-29T07:32:01.110Z,23.00
2018-05-29T07:34:30.597Z,23.20
2018-05-29T07:37:01.811Z,23.30
2018-05-29T07:39:30.540Z,23.30
2018-05-29T07:42:00.476Z,23.30
2018-05-29T07:44:34.097Z,23.40
2018-05-29T07:47:04.253Z,23.50
2018-05-29T07:49:31.921Z,23.60
2018-05-29T07:52:00.699Z,23.60
2018-05-29T07:54:31.697Z,23.70
2018-05-29T07:57:01.084Z,23.80
2018-05-29T07:59:32.619Z,23.80
2018-05-29T08:02:04.513Z,23.90
2018-05-29T08:04:34.087Z,24.00
2018-05-29T08:07:05.936Z,24.10
2018-05-29T08:09:34.398Z,24.10
2018-05-29T08:12:03.047Z,24.20
2018-05-29T08:14:32.110Z,24.30
2018-05-29T08:17:03.647Z,24.30
2018-05-29T08:19:50.277Z,24.40
2018-05-29T08:22:41.632Z,24.50
2018-05-29T08:25:25.813Z,24.60
2018-05-29T08:27:57.489Z,24.70
2018-05-29T08:30:27.025Z,24.80
2018-05-29T08:33:01.429Z,24.90
2018-05-29T08:35:31.168Z,25.00
2018-05-29T08:38:00.043Z,25.10
2018-05-29T08:40:27.927Z,25.10
2018-05-29T08:43:02.428Z,25.20
2018-05-29T08:45:34.170Z,25.40
2018-05-29T08:48:02.917Z,25.30
2018-05-29T08:50:31.601Z,25.40
2018-05-29T08:53:00.526Z,25.50
2018-05-29T08:55:28.301Z,25.60
2018-05-29T08:57:58.665Z,25.70
2018-05-29T09:00:30.949Z,25.80
2018-05-29T09:03:00.042Z,25.80
2018-05-29T09:06:04.889Z,26.00
2018-05-29T09:08:34.127Z,26.10
2018-05-29T09:11:01.826Z,26.20
2018-05-29T09:13:29.441Z,26.30
2018-05-29T09:15:57.719Z,26.30
2018-05-29T09:18:26.330Z,26.40
2018-05-29T09:20:54.221Z,26.50
2018-05-29T09:23:21.828Z,26.50
2018-05-29T09:25:49.622Z,26.60
2018-05-29T09:28:17.260Z,26.80
2018-05-29T09:30:45.214Z,26.80
2018-05-29T09:33:13.356Z,26.80
2018-05-29T09:35:42.081Z,26.90
2018-05-29T09:38:26.294Z,27.00
2018-05-29T09:45:36.316Z,27.00
2018-05-29T09:48:05.604Z,27.10
2018-05-29T09:50:34.011Z,27.30
2018-05-29T09:53:03.221Z,27.30
2018-05-29T09:55:33.603Z,27.60
2018-05-29T09:58:03.048Z,27.50
2018-05-29T10:00:36.193Z,27.70
2018-05-29T10:03:03.863Z,27.90
2018-05-29T10:05:33.027Z,28.00
2018-05-29T10:08:02.993Z,28.00
2018-05-29T10:10:37.385Z,28.10
2018-05-29T10:13:04.960Z,28.10
2018-05-29T10:15:32.662Z,28.20
2018-05-29T10:18:02.019Z,28.30
2018-05-29T10:20:30.550Z,28.40
2018-05-29T10:23:07.602Z,28.40
2018-05-29T10:25:36.439Z,28.60
2018-05-29T10:28:05.070Z,28.80
2018-05-29T10:30:34.517Z,28.90
2018-05-29T10:33:09.444Z,29.00
2018-05-29T10:38:38.015Z,29.10
2018-05-29T10:41:05.743Z,29.20
2018-05-29T10:43:33.443Z,29.30
2018-05-29T10:46:02.272Z,29.20
2018-05-29T10:48:32.901Z,29.20
2018-05-29T10:51:01.516Z,29.30
2018-05-29T10:53:30.662Z,29.50
2018-05-29T10:55:59.449Z,29.50
2018-05-29T10:58:30.051Z,29.60
2018-05-29T11:01:02.273Z,29.70
2018-05-29T11:03:31.861Z,29.80
2018-05-29T11:08:32.094Z,30.00
2018-05-29T11:11:01.370Z,30.20
2018-05-29T11:13:30.749Z,30.30
2018-05-29T11:16:00.122Z,30.40
2018-05-29T11:18:30.160Z,30.40
2018-05-29T11:21:03.986Z,30.60
2018-05-29T11:23:33.906Z,30.60
2018-05-29T11:26:13.734Z,30.80
2018-05-29T11:28:41.953Z,31.00
2018-05-29T11:31:10.710Z,31.10
2018-05-29T11:33:39.987Z,31.20
2018-05-29T11:36:08.593Z,31.30
2018-05-29T11:38:38.406Z,31.40
2018-05-29T11:41:06.082Z,31.40
2018-05-29T11:43:34.494Z,31.50
2018-05-29T11:46:02.907Z,31.60
2018-05-29T11:48:30.547Z,31.50
2018-05-29T11:51:00.051Z,31.60
2018-05-29T11:53:30.212Z,31.70
2018-05-29T11:56:00.404Z,31.80
2018-05-29T11:58:30.859Z,32.00
2018-05-29T12:03:47.829Z,32.00
2018-05-29T12:06:16.319Z,32.10
2018-05-29T12:08:43.931Z,32.20
2018-05-29T12:11:12.416Z,32.30
2018-05-29T12:13:40.861Z,32.40
2018-05-29T12:16:08.791Z,32.30
2018-05-29T12:18:39.313Z,32.50
2018-05-29T12:21:07.731Z,32.50
2018-05-29T12:23:35.338Z,32.50
2018-05-29T12:26:04.203Z,32.50
2018-05-29T12:28:34.734Z,32.60
2018-05-29T12:31:03.628Z,32.60
2018-05-29T12:33:31.304Z,32.80
2018-05-29T12:36:01.016Z,32.90
2018-05-29T12:38:51.327Z,32.90
2018-05-29T12:41:42.465Z,32.90
2018-05-29T12:47:20.185Z,32.50
2018-05-29T12:52:44.101Z,32.10
2018-05-29T12:55:16.194Z,32.00
2018-05-29T12:57:43.827Z,32.00
2018-05-29T13:00:12.336Z,32.30
2018-05-29T13:02:40.958Z,32.50
2018-05-29T13:05:09.071Z,32.70
2018-05-29T13:07:37.536Z,32.90
2018-05-29T13:10:06.037Z,33.10
2018-05-29T13:12:34.881Z,33.20
2018-05-29T13:15:15.171Z,33.30
2018-05-29T13:23:47.307Z,32.80
2018-05-29T13:26:22.664Z,33.00
2018-05-29T13:28:51.542Z,33.10
2018-05-29T13:31:22.055Z,33.30
2018-05-29T13:33:50.733Z,33.10
2018-05-29T13:36:19.582Z,33.20
2018-05-29T13:38:47.211Z,33.40
2018-05-29T13:41:15.707Z,33.60
2018-05-29T13:43:44.996Z,33.80
2018-05-29T13:46:13.714Z,33.70
2018-05-29T13:48:42.299Z,33.60
2018-05-29T13:51:10.859Z,33.40
2018-05-29T13:53:39.216Z,33.50
2018-05-29T13:56:07.613Z,33.70
2018-05-29T13:58:36.061Z,34.10
2018-05-29T14:01:03.794Z,34.00
2018-05-29T14:03:33.061Z,34.20
2018-05-29T14:06:00.856Z,34.20
2018-05-29T14:08:31.027Z,34.00
2018-05-29T14:11:05.525Z,33.80
2018-05-29T14:13:49.346Z,33.70
2018-05-29T14:16:17.662Z,33.50
2018-05-29T14:18:45.288Z,33.60
2018-05-29T14:21:17.233Z,33.80
2018-05-29T14:23:44.823Z,33.90
2018-05-29T14:26:12.393Z,33.50
2018-05-29T14:28:40.035Z,32.70
2018-05-29T14:31:09.655Z,32.00
2018-05-29T14:33:37.284Z,31.40
2018-05-29T14:36:05.640Z,30.60
2018-05-29T14:38:39.605Z,30.60
2018-05-29T14:41:09.339Z,30.30
2018-05-29T14:43:36.971Z,29.90
2018-05-29T14:46:05.333Z,29.60
2018-05-29T14:48:32.981Z,29.40
2018-05-29T14:51:02.838Z,28.90
2018-05-29T14:53:31.277Z,28.60
2018-05-29T14:56:02.737Z,28.00
2018-05-29T14:58:34.005Z,27.90
2018-05-29T15:01:03.170Z,27.70
2018-05-29T15:03:35.141Z,27.50
2018-05-29T15:06:03.226Z,27.30
2018-05-29T15:08:31.128Z,26.80
2018-05-29T15:11:01.133Z,26.00
2018-05-29T15:13:33.602Z,25.60
2018-05-29T15:16:02.585Z,25.20
2018-05-29T15:18:32.049Z,25.10
2018-05-29T15:21:07.110Z,25.10
2018-05-29T15:23:35.524Z,25.00
2018-05-29T15:26:05.257Z,24.80
2018-05-29T15:28:33.523Z,24.50
2018-05-29T15:31:02.761Z,24.30
2018-05-29T15:33:31.417Z,24.20
2018-05-29T15:36:01.381Z,23.90
2018-05-29T15:38:30.674Z,23.80
2018-05-29T15:40:59.935Z,23.60
2018-05-29T15:43:28.899Z,23.40
2018-05-29T15:45:56.616Z,23.30
2018-05-29T15:51:07.667Z,23.40
2018-05-29T15:53:35.308Z,23.40
2018-05-29T15:56:03.699Z,23.40
2018-05-29T15:58:32.976Z,23.40
2018-05-29T16:01:00.886Z,23.40
2018-05-29T16:03:30.864Z,23.50
2018-05-29T16:05:58.605Z,23.40
2018-05-29T16:08:31.039Z,23.40
2018-05-29T16:11:00.028Z,23.50
2018-05-29T16:13:29.749Z,23.40
2018-05-29T16:15:58.484Z,23.30
2018-05-29T16:18:28.434Z,23.20
2018-05-29T16:21:00.079Z,23.20
2018-05-29T16:23:31.280Z,23.20
2018-05-29T16:26:02.659Z,23.20
2018-05-29T16:28:37.852Z,23.10
2018-05-29T16:31:05.678Z,23.00
2018-05-29T16:33:34.114Z,22.80
2018-05-29T16:36:03.416Z,22.70
2018-05-29T16:38:32.043Z,22.60
2018-05-29T16:41:00.441Z,22.60
2018-05-29T16:43:30.493Z,22.60
2018-05-29T16:45:59.462Z,22.60
2018-05-29T16:48:29.369Z,22.70
2018-05-29T16:50:58.781Z,22.70
2018-05-29T16:53:27.230Z,22.70
2018-05-29T16:55:57.104Z,22.70
2018-05-29T16:58:29.107Z,22.50
2018-05-29T17:01:10.668Z,22.40
2018-05-29T17:03:40.669Z,22.30
2018-05-29T17:06:08.377Z,22.40
2018-05-29T17:08:37.643Z,22.40
2018-05-29T17:11:05.297Z,22.30
2018-05-29T17:13:32.974Z,22.30
2018-05-29T17:16:05.211Z,22.40
2018-05-29T17:18:32.910Z,22.40
2018-05-29T17:21:01.402Z,22.40
2018-05-29T17:23:34.449Z,22.40
2018-05-29T17:26:02.774Z,22.40
2018-05-29T17:28:37.228Z,22.30
2018-05-29T17:31:06.482Z,22.30
2018-05-29T17:33:38.022Z,22.20
2018-05-29T17:36:06.545Z,22.20
2018-05-29T17:38:34.212Z,22.20
2018-05-29T17:41:02.566Z,21.90
2018-05-29T17:43:31.177Z,21.90
2018-05-29T17:45:59.147Z,21.90
2018-05-29T17:48:29.338Z,21.90
2018-05-29T17:51:00.691Z,21.80
2018-05-29T17:56:02.262Z,21.90
2018-05-29T17:58:32.122Z,21.80
2018-05-29T18:01:00.754Z,21.80
2018-05-29T18:03:30.601Z,21.70
2018-05-29T18:06:01.702Z,21.70
2018-05-29T18:08:30.118Z,21.70
2018-05-29T18:10:58.439Z,21.60
2018-05-29T18:13:26.242Z,21.60
2018-05-29T18:15:53.901Z,21.50
2018-05-29T18:18:21.528Z,21.40
2018-05-29T18:20:49.164Z,21.30
2018-05-29T18:23:18.253Z,21.10
2018-05-29T18:25:47.315Z,20.80
2018-05-29T18:28:14.911Z,20.70
2018-05-29T18:30:45.545Z,20.80
2018-05-29T18:33:24.749Z,20.80
2018-05-29T18:35:52.442Z,20.80
2018-05-29T18:38:23.937Z,20.90
2018-05-29T18:41:00.993Z,21.00
2018-05-29T18:43:30.002Z,21.00
2018-05-29T18:45:59.152Z,21.00
2018-05-29T18:48:28.769Z,21.00
2018-05-29T18:51:00.562Z,21.00
2018-05-29T18:53:30.211Z,21.00
2018-05-29T18:56:09.655Z,20.90
2018-05-29T18:58:38.930Z,21.00
2018-05-29T19:01:06.588Z,21.00
2018-05-29T19:03:38.115Z,21.00
2018-05-29T19:06:06.355Z,20.90
2018-05-29T19:08:36.826Z,20.90
2018-05-29T19:11:08.984Z,20.70
2018-05-29T19:13:45.175Z,20.70
2018-05-29T19:16:13.520Z,20.80
2018-05-29T19:18:42.036Z,20.70
2018-05-29T19:21:10.426Z,20.80
2018-05-29T19:23:38.230Z,20.80
2018-05-29T19:26:05.935Z,20.80
2018-05-29T19:28:33.616Z,20.80
2018-05-29T19:31:01.414Z,20.80
2018-05-29T19:33:31.491Z,20.80
2018-05-29T19:36:02.173Z,20.80
2018-05-29T19:38:34.574Z,20.80
2018-05-29T19:41:05.035Z,20.80
2018-05-29T19:43:33.437Z,20.80
2018-05-29T19:46:01.968Z,20.80
2018-05-29T19:48:31.281Z,20.70
2018-05-29T19:50:59.879Z,20.70
2018-05-29T19:53:29.686Z,20.70
2018-05-29T19:55:59.186Z,20.70
2018-05-29T19:58:28.889Z,20.60
2018-05-29T20:00:57.712Z,20.60
2018-05-29T20:03:30.300Z,20.60
2018-05-29T20:05:58.009Z,20.60
2018-05-29T20:08:30.500Z,20.50
2018-05-29T20:11:01.259Z,20.50
2018-05-29T20:13:35.391Z,20.50
2018-05-29T20:16:03.262Z,20.50
2018-05-29T20:18:32.150Z,20.50
2018-05-29T20:21:00.637Z,20.50
2018-05-29T20:23:30.060Z,20.40
2018-05-29T20:26:00.350Z,20.40
2018-05-29T20:28:29.041Z,20.40
2018-05-29T20:30:58.456Z,20.40
2018-05-29T20:33:28.315Z,20.40
2018-05-29T20:35:57.919Z,20.40
2018-05-29T20:38:32.538Z,20.40
2018-05-29T20:41:00.296Z,20.40
2018-05-29T20:43:31.628Z,20.40
2018-05-29T20:45:59.857Z,20.40
2018-05-29T20:48:28.849Z,20.40
2018-05-29T20:50:57.269Z,20.40
2018-05-29T20:53:34.474Z,20.40
2018-05-29T20:56:03.461Z,20.40
2018-05-29T20:58:31.138Z,20.40
2018-05-29T21:01:00.022Z,20.40
2018-05-29T21:03:30.934Z,20.40
2018-05-29T21:06:01.094Z,20.40
2018-05-29T21:08:28.874Z,20.40
2018-05-29T21:11:00.727Z,20.40
2018-05-29T21:13:32.723Z,20.40
2018-05-29T21:16:03.951Z,20.30
2018-05-29T21:18:34.157Z,20.30
2018-05-29T21:21:01.865Z,20.30
2018-05-29T21:23:30.565Z,20.40
2018-05-29T21:26:02.158Z,20.30
2018-05-29T21:28:31.390Z,20.30
2018-05-29T21:31:00.161Z,20.20
2018-05-29T21:33:27.836Z,20.20
2018-05-29T21:35:58.534Z,20.10
2018-05-29T21:38:29.928Z,20.10
2018-05-29T21:41:03.031Z,20.00
2018-05-29T21:43:31.295Z,20.00
2018-05-29T21:46:00.824Z,20.00
2018-05-29T21:48:39.893Z,20.10
2018-05-29T21:51:07.510Z,20.00
2018-05-29T21:53:35.247Z,20.00
2018-05-29T21:56:03.033Z,20.00
2018-05-29T21:58:31.450Z,19.90
2018-05-29T22:01:00.410Z,19.70
2018-05-29T22:03:30.565Z,19.60
2018-05-29T22:05:59.222Z,19.50
2018-05-29T22:08:32.241Z,19.50
2018-05-29T22:11:00.641Z,19.30
2018-05-29T22:13:28.915Z,19.30
2018-05-29T22:16:00.284Z,19.30
2018-05-29T22:18:28.865Z,19.30
2018-05-29T22:21:02.362Z,19.20
2018-05-29T22:23:31.479Z,19.20
2018-05-29T22:26:02.380Z,19.20
2018-05-29T22:28:31.344Z,19.10
2018-05-29T22:31:00.271Z,19.20
2018-05-29T22:33:31.288Z,19.20
2018-05-29T22:35:59.633Z,19.20
2018-05-29T22:38:29.833Z,19.20
2018-05-29T22:41:03.707Z,19.20
2018-05-29T22:43:31.345Z,19.20
2018-05-29T22:46:02.646Z,19.10
2018-05-29T22:48:31.644Z,19.20
2018-05-29T22:51:00.025Z,19.10
2018-05-29T22:53:27.671Z,19.10
2018-05-29T22:55:57.201Z,19.10
2018-05-29T22:58:26.411Z,19.20
2018-05-29T23:00:54.239Z,19.20
2018-05-29T23:03:21.805Z,19.10
2018-05-29T23:05:49.520Z,19.20
2018-05-29T23:08:17.915Z,19.20
2018-05-29T23:10:45.904Z,19.20
2018-05-29T23:13:13.568Z,19.20
2018-05-29T23:15:42.558Z,19.30
2018-05-29T23:18:13.758Z,19.30
2018-05-29T23:20:45.359Z,19.30
2018-05-29T23:23:15.109Z,19.30
2018-05-29T23:25:43.565Z,19.20
2018-05-29T23:28:11.180Z,19.30
2018-05-29T23:30:38.937Z,19.30
2018-05-29T23:33:06.711Z,19.20
2018-05-29T23:35:35.100Z,19.20
2018-05-29T23:38:04.893Z,19.20
2018-05-29T23:40:33.027Z,19.10
2018-05-29T23:43:01.701Z,19.20
2018-05-29T23:48:01.890Z,19.20
2018-05-29T23:50:32.259Z,19.20
2018-05-29T23:53:01.306Z,19.20
2018-05-29T23:55:29.186Z,19.20
2018-05-29T23:58:06.665Z,19.30
